createdAt,value
2018-02-23T00:01:27.404Z,-2.60
2018-02-23T00:04:30.677Z,-2.60
2018-02-23T00:07:47.841Z,-2.60
2018-02-23T00:10:51.152Z,-2.60
2018-02-23T00:13:54.446Z,-2.70
2018-02-23T00:16:57.705Z,-2.70
2018-02-23T00:20:01.764Z,-2.70
2018-02-23T00:23:05.076Z,-2.80
2018-02-23T00:26:08.307Z,-2.80
2018-02-23T00:29:11.603Z,-2.90
2018-02-23T00:32:14.903Z,-2.90
2018-02-23T00:35:18.174Z,-2.90
2018-02-23T00:38:21.449Z,-2.90
2018-02-23T00:41:24.807Z,-3.00
2018-02-23T00:44:28.124Z,-3.00
2018-02-23T00:47:31.429Z,-3.10
2018-02-23T00:50:34.859Z,-3.20
2018-02-23T00:53:38.905Z,-3.20
2018-02-23T00:56:43.163Z,-3.30
2018-02-23T00:59:46.589Z,-3.30
2018-02-23T01:02:49.926Z,-3.30
2018-02-23T01:05:53.255Z,-3.30
2018-02-23T01:08:56.658Z,-3.40
2018-02-23T01:12:00.066Z,-3.40
2018-02-23T01:15:03.375Z,-3.40
2018-02-23T01:18:06.979Z,-3.50
2018-02-23T01:21:11.011Z,-3.50
2018-02-23T01:24:15.134Z,-3.60
2018-02-23T01:27:19.180Z,-3.70
2018-02-23T01:30:22.500Z,-3.70
2018-02-23T01:33:25.759Z,-3.70
2018-02-23T01:36:29.055Z,-3.70
2018-02-23T01:39:32.348Z,-3.80
2018-02-23T01:42:35.689Z,-3.80
2018-02-23T01:45:38.984Z,-3.80
2018-02-23T01:48:42.867Z,-3.80
2018-02-23T01:51:46.909Z,-3.90
2018-02-23T01:54:50.219Z,-3.90
2018-02-23T01:57:53.467Z,-4.00
2018-02-23T02:00:56.760Z,-4.00
2018-02-23T02:04:00.820Z,-4.00
2018-02-23T02:07:04.127Z,-4.10
2018-02-23T02:10:07.421Z,-4.10
2018-02-23T02:13:10.709Z,-4.10
2018-02-23T02:16:14.024Z,-4.20
2018-02-23T02:19:17.334Z,-4.20
2018-02-23T02:22:20.627Z,-4.20
2018-02-23T02:25:24.740Z,-4.30
2018-02-23T02:28:27.969Z,-4.30
2018-02-23T02:31:32.005Z,-4.30
2018-02-23T02:34:35.670Z,-4.40
2018-02-23T02:37:38.961Z,-4.30
2018-02-23T02:40:42.500Z,-4.40
2018-02-23T02:43:45.784Z,-4.40
2018-02-23T02:46:49.829Z,-4.40
2018-02-23T02:49:53.107Z,-4.40
2018-02-23T02:52:57.146Z,-4.40
2018-02-23T02:56:00.368Z,-4.40
2018-02-23T02:59:03.665Z,-4.50
2018-02-23T03:02:06.937Z,-4.50
2018-02-23T03:05:10.250Z,-4.50
2018-02-23T03:08:13.567Z,-4.50
2018-02-23T03:11:17.608Z,-4.60
2018-02-23T03:14:21.624Z,-4.60
2018-02-23T03:17:25.619Z,-4.60
2018-02-23T03:20:28.913Z,-4.60
2018-02-23T03:23:32.925Z,-4.60
2018-02-23T03:26:36.310Z,-4.60
2018-02-23T03:29:40.394Z,-4.60
2018-02-23T03:32:43.768Z,-4.60
2018-02-23T03:35:47.121Z,-4.70
2018-02-23T03:38:50.402Z,-4.80
2018-02-23T03:41:53.690Z,-4.80
2018-02-23T03:44:56.934Z,-4.80
2018-02-23T03:48:00.245Z,-4.90
2018-02-23T03:51:04.291Z,-4.90
2018-02-23T03:54:07.595Z,-5.00
2018-02-23T03:57:10.895Z,-5.00
2018-02-23T04:00:14.215Z,-5.00
2018-02-23T04:03:17.516Z,-5.00
2018-02-23T04:06:20.776Z,-5.10
2018-02-23T04:09:24.409Z,-5.10
2018-02-23T04:12:27.722Z,-5.20
2018-02-23T04:15:30.988Z,-5.30
2018-02-23T04:18:40.456Z,-5.40
2018-02-23T04:21:43.782Z,-5.50
2018-02-23T04:24:47.080Z,-5.50
2018-02-23T04:27:50.389Z,-5.40
2018-02-23T04:30:53.700Z,-5.40
2018-02-23T04:33:57.007Z,-5.30
2018-02-23T04:37:00.339Z,-5.20
2018-02-23T04:40:03.637Z,-5.20
2018-02-23T04:43:07.682Z,-5.20
2018-02-23T04:46:11.769Z,-5.30
2018-02-23T04:49:15.070Z,-5.30
2018-02-23T04:52:18.362Z,-5.40
2018-02-23T04:55:22.445Z,-5.40
2018-02-23T04:58:25.699Z,-5.40
2018-02-23T05:01:29.020Z,-5.50
2018-02-23T05:04:32.296Z,-5.40
2018-02-23T05:07:35.607Z,-5.50
2018-02-23T05:10:39.240Z,-5.50
2018-02-23T05:13:43.315Z,-5.50
2018-02-23T05:16:46.595Z,-5.50
2018-02-23T05:19:49.891Z,-5.50
2018-02-23T05:22:53.933Z,-5.50
2018-02-23T05:25:57.286Z,-5.60
2018-02-23T05:29:01.348Z,-5.60
2018-02-23T05:32:04.628Z,-5.60
2018-02-23T05:35:07.920Z,-5.60
2018-02-23T05:38:11.944Z,-5.60
2018-02-23T05:41:15.188Z,-5.60
2018-02-23T05:44:19.254Z,-5.70
2018-02-23T05:47:22.639Z,-5.70
2018-02-23T05:50:25.914Z,-5.70
2018-02-23T05:53:29.203Z,-5.70
2018-02-23T05:56:32.475Z,-5.70
2018-02-23T05:59:35.745Z,-5.70
2018-02-23T06:02:39.019Z,-5.70
2018-02-23T06:05:42.627Z,-5.70
2018-02-23T06:08:45.924Z,-5.70
2018-02-23T06:11:49.705Z,-5.80
2018-02-23T06:14:53.001Z,-5.80
2018-02-23T06:18:02.734Z,-5.70
2018-02-23T06:21:06.329Z,-5.70
2018-02-23T06:24:09.723Z,-5.60
2018-02-23T06:27:13.823Z,-5.60
2018-02-23T06:30:17.162Z,-5.60
2018-02-23T06:33:21.230Z,-5.60
2018-02-23T06:36:24.582Z,-5.60
2018-02-23T06:39:27.961Z,-5.50
2018-02-23T06:42:31.235Z,-5.50
2018-02-23T06:45:34.522Z,-5.50
2018-02-23T06:48:38.123Z,-5.40
2018-02-23T06:51:41.395Z,-5.40
2018-02-23T06:54:45.414Z,-5.30
2018-02-23T06:57:48.695Z,-5.30
2018-02-23T07:00:51.949Z,-5.20
2018-02-23T07:03:55.244Z,-5.30
2018-02-23T07:06:59.294Z,-5.20
2018-02-23T07:10:02.607Z,-5.20
2018-02-23T07:13:05.905Z,-5.10
2018-02-23T07:16:09.166Z,-5.20
2018-02-23T07:19:12.431Z,-5.20
2018-02-23T07:22:15.679Z,-5.20
2018-02-23T07:25:19.692Z,-5.00
2018-02-23T07:28:22.989Z,-5.10
2018-02-23T07:31:26.223Z,-5.00
2018-02-23T07:34:29.966Z,-5.00
2018-02-23T07:37:33.233Z,-4.90
2018-02-23T07:40:36.671Z,-4.90
2018-02-23T07:43:39.925Z,-4.80
2018-02-23T07:46:43.216Z,-4.80
2018-02-23T07:49:46.481Z,-4.80
2018-02-23T07:52:50.508Z,-4.70
2018-02-23T07:55:53.747Z,-4.70
2018-02-23T07:58:57.842Z,-4.50
2018-02-23T08:02:01.111Z,-4.50
2018-02-23T08:05:04.491Z,-4.60
2018-02-23T08:08:07.753Z,-4.50
2018-02-23T08:11:11.043Z,-4.40
2018-02-23T08:14:14.689Z,-4.40
2018-02-23T08:17:18.718Z,-4.20
2018-02-23T08:20:21.992Z,-4.20
2018-02-23T08:23:25.306Z,-4.10
2018-02-23T08:26:28.642Z,-4.00
2018-02-23T08:29:31.922Z,-4.10
2018-02-23T08:32:35.352Z,-4.00
2018-02-23T08:35:38.855Z,-4.00
2018-02-23T08:38:42.189Z,-3.90
2018-02-23T08:41:46.200Z,-3.70
2018-02-23T08:44:49.567Z,-3.80
2018-02-23T08:47:52.809Z,-3.60
2018-02-23T08:50:56.059Z,-3.30
2018-02-23T08:53:59.343Z,-3.20
2018-02-23T08:57:02.740Z,-2.80
2018-02-23T09:00:06.043Z,-2.50
2018-02-23T09:03:10.109Z,-2.30
2018-02-23T09:06:14.135Z,-2.20
2018-02-23T09:09:17.429Z,-2.20
2018-02-23T09:12:21.533Z,-2.40
2018-02-23T09:15:24.838Z,-2.40
2018-02-23T09:18:28.881Z,-2.00
2018-02-23T09:21:32.478Z,-2.00
2018-02-23T09:24:36.203Z,-1.60
2018-02-23T09:27:39.518Z,-1.40
2018-02-23T09:30:43.696Z,-1.40
2018-02-23T09:33:58.944Z,-1.50
2018-02-23T09:37:02.288Z,-1.50
2018-02-23T09:40:05.631Z,-1.70
2018-02-23T09:43:09.667Z,-1.70
2018-02-23T09:46:12.968Z,-1.70
2018-02-23T09:49:17.386Z,-1.80
2018-02-23T09:52:20.734Z,-1.80
2018-02-23T09:55:24.865Z,-2.40
2018-02-23T09:58:28.939Z,-2.10
2018-02-23T10:01:32.273Z,-2.20
2018-02-23T10:04:36.412Z,-2.10
2018-02-23T10:07:39.797Z,-2.10
2018-02-23T10:10:43.982Z,-1.40
2018-02-23T10:13:47.267Z,-1.50
2018-02-23T10:16:50.574Z,-0.80
2018-02-23T10:19:53.921Z,-0.50
2018-02-23T10:22:57.188Z,0.10
2018-02-23T10:26:00.496Z,0.10
2018-02-23T10:29:04.634Z,0.70
2018-02-23T10:32:08.797Z,0.30
2018-02-23T10:35:12.532Z,0.20
2018-02-23T10:38:15.861Z,0.00
2018-02-23T10:41:19.154Z,0.20
2018-02-23T10:44:23.199Z,0.90
2018-02-23T10:47:26.486Z,0.90
2018-02-23T10:50:30.120Z,0.60
2018-02-23T10:53:33.349Z,0.30
2018-02-23T10:56:37.542Z,-0.10
2018-02-23T10:59:40.827Z,-0.10
2018-02-23T11:02:44.183Z,0.20
2018-02-23T11:05:47.442Z,0.80
2018-02-23T11:08:50.908Z,0.60
2018-02-23T11:11:54.971Z,0.60
2018-02-23T11:14:58.289Z,0.50
2018-02-23T11:18:01.603Z,0.70
2018-02-23T11:21:04.929Z,0.30
2018-02-23T11:24:08.239Z,-0.30
2018-02-23T11:27:11.518Z,0.20
2018-02-23T11:30:15.230Z,0.10
2018-02-23T11:33:18.492Z,0.30
2018-02-23T11:36:21.956Z,0.10
2018-02-23T11:39:26.000Z,0.30
2018-02-23T11:42:29.417Z,0.30
2018-02-23T11:45:32.797Z,0.40
2018-02-23T11:48:36.260Z,0.30
2018-02-23T11:51:40.315Z,0.00
2018-02-23T11:54:43.765Z,0.00
2018-02-23T11:57:47.464Z,0.10
2018-02-23T12:00:50.806Z,0.00
2018-02-23T12:03:54.479Z,-0.10
2018-02-23T12:06:57.859Z,-0.10
2018-02-23T12:10:01.209Z,-0.50
2018-02-23T12:13:05.259Z,-1.10
2018-02-23T12:16:08.628Z,-1.20
2018-02-23T12:19:12.308Z,-0.80
2018-02-23T12:22:16.382Z,-0.90
2018-02-23T12:25:19.872Z,-1.00
2018-02-23T12:28:23.188Z,-1.00
2018-02-23T12:31:26.504Z,-1.00
2018-02-23T12:34:29.793Z,-1.10
2018-02-23T12:37:33.083Z,-0.90
2018-02-23T12:40:36.465Z,-0.90
2018-02-23T12:43:39.747Z,-0.90
2018-02-23T12:46:43.294Z,-0.80
2018-02-23T12:49:47.364Z,-0.80
2018-02-23T12:52:50.617Z,-0.90
2018-02-23T12:55:53.899Z,-0.80
2018-02-23T12:58:57.980Z,-0.80
2018-02-23T13:02:01.301Z,-0.80
2018-02-23T13:05:04.614Z,-0.80
2018-02-23T13:08:07.925Z,-0.80
2018-02-23T13:11:12.003Z,-0.80
2018-02-23T13:14:16.345Z,-0.60
2018-02-23T13:17:19.639Z,-0.60
2018-02-23T13:20:22.931Z,-0.70
2018-02-23T13:23:26.192Z,-0.70
2018-02-23T13:26:29.464Z,-0.60
2018-02-23T13:29:32.855Z,-0.70
2018-02-23T13:32:36.335Z,-0.70
2018-02-23T13:35:39.867Z,-0.70
2018-02-23T13:41:52.873Z,-0.70
2018-02-23T13:44:56.138Z,-0.60
2018-02-23T13:47:59.406Z,-0.50
2018-02-23T13:51:03.418Z,-0.70
2018-02-23T13:54:12.249Z,-0.70
2018-02-23T13:57:22.400Z,-0.60
2018-02-23T14:00:25.674Z,-0.60
2018-02-23T14:03:30.155Z,-0.80
2018-02-23T14:06:33.433Z,-0.80
2018-02-23T14:09:36.907Z,-0.60
2018-02-23T14:12:40.221Z,-0.60
2018-02-23T14:15:43.616Z,-0.50
2018-02-23T14:18:47.637Z,-0.60
2018-02-23T14:21:50.933Z,-0.60
2018-02-23T14:24:54.191Z,-0.60
2018-02-23T14:27:58.267Z,-0.70
2018-02-23T14:31:01.560Z,-0.70
2018-02-23T14:34:05.868Z,-0.70
2018-02-23T14:37:09.118Z,-0.70
2018-02-23T14:40:12.405Z,-0.80
2018-02-23T14:43:16.470Z,-0.80
2018-02-23T14:46:19.750Z,-0.80
2018-02-23T14:49:23.059Z,-0.80
2018-02-23T14:52:26.555Z,-0.90
2018-02-23T14:55:30.620Z,-0.90
2018-02-23T14:58:33.942Z,-0.90
2018-02-23T15:01:37.298Z,-1.00
2018-02-23T15:04:40.615Z,-1.00
2018-02-23T15:07:44.716Z,-1.10
2018-02-23T15:10:48.016Z,-1.20
2018-02-23T15:13:51.352Z,-1.20
2018-02-23T15:16:54.678Z,-1.20
2018-02-23T15:19:58.040Z,-1.20
2018-02-23T15:23:02.401Z,-1.40
2018-02-23T15:26:05.713Z,-1.40
2018-02-23T15:29:09.769Z,-1.50
2018-02-23T15:32:25.736Z,-1.50
2018-02-23T15:35:29.090Z,-1.50
2018-02-23T15:38:32.739Z,-1.50
2018-02-23T15:41:36.109Z,-1.50
2018-02-23T15:44:39.516Z,-1.60
2018-02-23T15:47:42.828Z,-1.70
2018-02-23T15:50:50.931Z,-1.70
2018-02-23T15:53:54.343Z,-1.80
2018-02-23T15:56:57.666Z,-1.80
2018-02-23T16:00:02.221Z,-1.90
2018-02-23T16:03:05.578Z,-1.90
2018-02-23T16:06:09.680Z,-2.00
2018-02-23T16:09:12.968Z,-2.00
2018-02-23T16:12:16.352Z,-2.00
2018-02-23T16:15:19.644Z,-2.10
2018-02-23T16:18:22.971Z,-2.10
2018-02-23T16:21:26.309Z,-2.20
2018-02-23T16:24:30.485Z,-2.30
2018-02-23T16:27:33.762Z,-2.30
2018-02-23T16:30:37.173Z,-2.30
2018-02-23T16:33:40.457Z,-2.40
2018-02-23T16:36:43.804Z,-2.40
2018-02-23T16:39:48.227Z,-2.50
2018-02-23T16:42:52.294Z,-2.50
2018-02-23T16:45:55.615Z,-2.60
2018-02-23T16:48:58.916Z,-2.60
2018-02-23T16:52:02.226Z,-2.60
2018-02-23T16:55:05.780Z,-2.70
2018-02-23T16:58:09.066Z,-2.80
2018-02-23T17:01:12.722Z,-2.80
2018-02-23T17:04:16.013Z,-2.80
2018-02-23T17:07:19.335Z,-2.80
2018-02-23T17:10:22.747Z,-2.90
2018-02-23T17:13:26.834Z,-2.90
2018-02-23T17:16:30.124Z,-3.00
2018-02-23T17:19:33.787Z,-3.00
2018-02-23T17:22:37.115Z,-3.00
2018-02-23T17:25:40.412Z,-3.10
2018-02-23T17:28:43.689Z,-3.10
2018-02-23T17:31:47.023Z,-3.20
2018-02-23T17:34:51.115Z,-3.20
2018-02-23T17:37:54.436Z,-3.30
2018-02-23T17:40:57.714Z,-3.30
2018-02-23T17:44:01.241Z,-3.30
2018-02-23T17:47:05.370Z,-3.40
2018-02-23T17:50:09.426Z,-3.40
2018-02-23T17:53:12.783Z,-3.40
2018-02-23T17:56:16.082Z,-3.50
2018-02-23T17:59:19.432Z,-3.50
2018-02-23T18:02:22.744Z,-3.50
2018-02-23T18:05:26.032Z,-3.60
2018-02-23T18:08:29.417Z,-3.60
2018-02-23T18:11:32.964Z,-3.70
2018-02-23T18:14:36.670Z,-3.70
2018-02-23T18:17:40.025Z,-3.80
2018-02-23T18:20:43.337Z,-3.80
2018-02-23T18:23:46.672Z,-3.90
2018-02-23T18:26:51.107Z,-3.90
2018-02-23T18:29:54.396Z,-3.90
2018-02-23T18:32:58.079Z,-4.00
2018-02-23T18:36:01.347Z,-4.00
2018-02-23T18:39:04.661Z,-4.10
2018-02-23T18:42:07.933Z,-4.10
2018-02-23T18:45:11.238Z,-4.10
2018-02-23T18:48:14.483Z,-4.20
2018-02-23T18:51:17.811Z,-4.20
2018-02-23T18:54:21.137Z,-4.30
2018-02-23T18:57:24.391Z,-4.30
2018-02-23T19:00:27.681Z,-4.40
2018-02-23T19:03:31.053Z,-4.40
2018-02-23T19:06:34.609Z,-4.40
2018-02-23T19:09:38.089Z,-4.40
2018-02-23T19:12:42.007Z,-4.50
2018-02-23T19:15:45.393Z,-4.40
2018-02-23T19:18:48.969Z,-4.40
2018-02-23T19:21:53.179Z,-4.40
2018-02-23T19:24:57.311Z,-4.50
2018-02-23T19:28:02.216Z,-4.50
2018-02-23T19:31:05.540Z,-4.50
2018-02-23T19:34:08.975Z,-4.50
2018-02-23T19:37:12.332Z,-4.50
2018-02-23T19:40:16.786Z,-4.50
2018-02-23T19:43:20.932Z,-4.40
2018-02-23T19:46:24.288Z,-4.40
2018-02-23T19:49:27.662Z,-4.40
2018-02-23T19:52:31.752Z,-4.40
2018-02-23T19:55:35.039Z,-4.40
2018-02-23T19:58:38.525Z,-4.50
2018-02-23T20:01:41.824Z,-4.50
2018-02-23T20:04:45.141Z,-4.50
2018-02-23T20:07:48.485Z,-4.50
2018-02-23T20:10:53.057Z,-4.50
2018-02-23T20:13:56.408Z,-4.50
2018-02-23T20:16:59.774Z,-4.60
2018-02-23T20:20:03.146Z,-4.60
2018-02-23T20:23:07.794Z,-4.60
2018-02-23T20:26:11.161Z,-4.60
2018-02-23T20:29:14.879Z,-4.60
2018-02-23T20:32:18.301Z,-4.60
2018-02-23T20:35:21.681Z,-4.60
2018-02-23T20:38:25.096Z,-4.60
2018-02-23T20:41:28.801Z,-4.70
2018-02-23T20:44:32.284Z,-4.70
2018-02-23T20:47:35.758Z,-4.70
2018-02-23T20:50:39.121Z,-4.70
2018-02-23T20:53:43.348Z,-4.80
2018-02-23T20:56:46.832Z,-4.80
2018-02-23T20:59:51.163Z,-4.80
2018-02-23T21:02:54.567Z,-4.80
2018-02-23T21:05:58.759Z,-4.80
2018-02-23T21:09:02.236Z,-4.90
2018-02-23T21:12:05.809Z,-4.90
2018-02-23T21:15:09.197Z,-4.90
2018-02-23T21:18:13.613Z,-5.00
2018-02-23T21:21:17.094Z,-5.00
2018-02-23T21:24:20.869Z,-5.00
2018-02-23T21:27:25.079Z,-4.90
2018-02-23T21:30:28.598Z,-5.00
2018-02-23T21:33:32.058Z,-5.00
2018-02-23T21:36:35.570Z,-5.00
2018-02-23T21:39:39.100Z,-5.00
2018-02-23T21:42:42.629Z,-5.00
2018-02-23T21:45:46.787Z,-5.10
2018-02-23T21:48:50.268Z,-5.10
2018-02-23T21:51:54.398Z,-5.20
2018-02-23T21:54:57.814Z,-5.20
2018-02-23T21:58:01.203Z,-5.30
2018-02-23T22:01:04.731Z,-5.30
2018-02-23T22:04:08.133Z,-5.30
2018-02-23T22:07:13.074Z,-5.30
2018-02-23T22:10:16.471Z,-5.30
2018-02-23T22:13:19.884Z,-5.30
2018-02-23T22:16:23.321Z,-5.30
2018-02-23T22:19:26.701Z,-5.30
2018-02-23T22:22:30.516Z,-5.40
2018-02-23T22:25:34.001Z,-5.40
2018-02-23T22:28:37.985Z,-5.40
2018-02-23T22:31:41.541Z,-5.40
2018-02-23T22:34:44.990Z,-5.40
2018-02-23T22:37:48.419Z,-5.40
2018-02-23T22:40:51.835Z,-5.50
2018-02-23T22:43:56.022Z,-5.60
2018-02-23T22:46:59.344Z,-5.60
2018-02-23T22:50:03.146Z,-5.60
2018-02-23T22:53:06.610Z,-5.60
2018-02-23T22:56:10.322Z,-5.60
2018-02-23T22:59:14.447Z,-5.60
2018-02-23T23:02:17.865Z,-5.70
2018-02-23T23:05:21.249Z,-5.70
2018-02-23T23:08:24.688Z,-5.70
2018-02-23T23:11:28.927Z,-5.80
2018-02-23T23:14:32.355Z,-5.80
2018-02-23T23:17:36.116Z,-5.80
2018-02-23T23:20:39.568Z,-5.90
2018-02-23T23:23:43.012Z,-5.90
2018-02-23T23:26:46.408Z,-5.90
2018-02-23T23:29:49.891Z,-5.90
2018-02-23T23:32:53.308Z,-6.00
2018-02-23T23:35:57.502Z,-6.00
2018-02-23T23:39:00.997Z,-6.00
2018-02-23T23:42:04.395Z,-6.00
2018-02-23T23:45:07.778Z,-6.00
2018-02-23T23:48:11.231Z,-6.00
2018-02-23T23:51:14.664Z,-6.00
2018-02-23T23:54:18.059Z,-6.00
2018-02-23T23:57:21.494Z,-6.10
